createdAt,value
2022-11-15T00:00:59.915Z,13.70
2022-11-15T00:03:47.655Z,14.57
2022-11-15T00:06:36.950Z,14.57
2022-11-15T00:09:24.269Z,13.90
2022-11-15T00:12:12.615Z,12.63
2022-11-15T00:15:00.150Z,11.60
2022-11-15T00:17:50.641Z,11.17
2022-11-15T00:20:38.108Z,10.47
2022-11-15T00:23:26.812Z,11.73
2022-11-15T00:26:15.835Z,11.60
2022-11-15T02:35:32.716Z,18.03
2022-11-15T02:38:26.969Z,17.17
2022-11-15T02:41:19.291Z,16.37
2022-11-15T02:44:09.660Z,15.67
2022-11-15T02:47:16.062Z,16.63
2022-11-15T02:50:07.618Z,15.70
2022-11-15T02:52:56.383Z,16.57
2022-11-15T02:55:49.089Z,16.73
2022-11-15T02:59:11.296Z,15.80
2022-11-15T03:02:31.352Z,16.03
2022-11-15T03:05:25.943Z,16.53
2022-11-15T03:08:24.815Z,15.63
2022-11-15T03:11:15.803Z,16.17
2022-11-15T03:14:09.897Z,14.67
2022-11-15T03:17:04.537Z,14.93
2022-11-15T03:19:55.308Z,15.63
2022-11-15T03:22:45.982Z,14.17
2022-11-15T03:25:38.034Z,14.27
2022-11-15T03:28:30.534Z,15.10
2022-11-15T03:31:36.331Z,15.07
2022-11-15T03:34:30.063Z,15.80
2022-11-15T03:37:18.559Z,13.87
2022-11-15T03:40:24.748Z,12.93
2022-11-15T03:43:23.306Z,12.57
2022-11-15T03:46:16.290Z,12.20
2022-11-15T03:49:19.723Z,12.50
2022-11-15T03:52:08.162Z,12.13
2022-11-15T03:54:57.663Z,12.83
2022-11-15T03:57:45.156Z,11.50
2022-11-15T04:00:34.289Z,10.97
2022-11-15T04:03:21.845Z,10.90
2022-11-15T04:06:09.446Z,10.90
2022-11-15T04:08:56.545Z,10.03
2022-11-15T04:12:01.072Z,9.87
2022-11-15T04:15:08.320Z,11.67
2022-11-15T04:17:58.530Z,10.10
2022-11-15T04:21:03.310Z,9.70
2022-11-15T04:24:07.987Z,9.57
2022-11-15T04:26:56.454Z,9.87
2022-11-15T04:29:43.614Z,10.60
2022-11-15T04:32:30.982Z,10.67
2022-11-15T04:35:19.691Z,10.27
2022-11-15T04:38:25.858Z,10.10
2022-11-15T04:41:13.219Z,9.07
2022-11-15T04:44:00.456Z,9.47
2022-11-15T04:46:47.559Z,9.80
2022-11-15T04:49:34.760Z,10.07
2022-11-15T04:52:23.571Z,9.80
2022-11-15T04:55:11.397Z,10.77
2022-11-15T04:58:02.143Z,10.87
2022-11-15T05:00:49.516Z,9.93
2022-11-15T05:03:53.998Z,11.07
2022-11-15T05:06:41.676Z,11.53
2022-11-15T05:09:47.804Z,11.80
2022-11-15T05:12:35.466Z,11.40
2022-11-15T05:15:22.820Z,12.90
2022-11-15T05:18:10.159Z,12.63
2022-11-15T05:20:57.482Z,12.20
2022-11-15T05:23:44.789Z,13.80
2022-11-15T05:26:33.497Z,14.23
2022-11-15T05:29:20.968Z,13.40
2022-11-15T05:32:10.981Z,13.60
2022-11-15T05:34:58.795Z,13.93
2022-11-15T05:37:46.363Z,14.00
2022-11-15T05:40:34.789Z,13.67
2022-11-15T05:43:41.669Z,12.17
2022-11-15T05:46:29.748Z,10.97
2022-11-15T05:49:21.166Z,12.23
2022-11-15T05:52:12.473Z,12.87
2022-11-15T05:55:00.537Z,12.20
2022-11-15T05:57:48.096Z,12.10
2022-11-15T06:00:37.037Z,13.93
2022-11-15T06:03:24.507Z,11.13
2022-11-15T06:06:16.229Z,10.73
2022-11-15T06:09:03.899Z,11.07
2022-11-15T06:11:51.265Z,10.93
2022-11-15T06:14:38.554Z,9.80
2022-11-15T06:17:27.564Z,9.83
2022-11-15T06:20:15.228Z,18.30
2022-11-15T06:23:03.837Z,13.93
2022-11-15T06:25:51.478Z,9.33
2022-11-15T06:28:38.725Z,9.33
2022-11-15T06:31:26.286Z,8.83
2022-11-15T06:34:15.339Z,11.67
2022-11-15T06:37:03.030Z,12.37
2022-11-15T06:39:50.652Z,15.77
2022-11-15T06:42:38.231Z,12.50
2022-11-15T06:45:25.367Z,13.57
2022-11-15T06:48:12.681Z,14.07
2022-11-15T06:51:02.865Z,15.43
2022-11-15T06:53:50.197Z,15.90
2022-11-15T06:56:37.475Z,16.17
2022-11-15T06:59:24.770Z,14.50
2022-11-15T07:02:15.640Z,15.47
2022-11-15T07:05:03.587Z,13.07
2022-11-15T07:07:56.759Z,13.37
2022-11-15T07:10:44.358Z,11.03
2022-11-15T07:13:34.837Z,12.07
2022-11-15T07:16:23.274Z,11.17
2022-11-15T07:19:12.338Z,12.53
2022-11-15T07:21:59.882Z,12.43
2022-11-15T07:24:48.553Z,12.33
2022-11-15T07:27:36.201Z,11.80
2022-11-15T07:30:23.458Z,12.60
2022-11-15T07:33:10.709Z,12.10
2022-11-15T07:36:02.751Z,14.10
2022-11-15T07:38:50.092Z,16.57
2022-11-15T07:41:39.729Z,13.63
2022-11-15T07:44:28.382Z,15.40
2022-11-15T07:47:15.832Z,11.67
2022-11-15T07:50:03.107Z,10.63
2022-11-15T07:52:50.352Z,11.50
2022-11-15T07:55:37.762Z,10.77
2022-11-15T07:58:44.001Z,10.80
2022-11-15T08:01:31.847Z,10.57
2022-11-15T08:04:19.401Z,10.63
2022-11-15T08:07:06.848Z,11.33
2022-11-15T08:09:54.026Z,10.20
2022-11-15T08:12:41.396Z,9.70
2022-11-15T08:15:30.490Z,11.23
2022-11-15T08:18:19.128Z,9.23
2022-11-15T08:21:07.219Z,10.17
2022-11-15T08:24:11.552Z,10.17
2022-11-15T08:26:59.220Z,8.97
2022-11-15T08:29:47.438Z,9.23
2022-11-15T08:32:36.359Z,9.20
2022-11-15T08:35:28.816Z,7.77
2022-11-15T08:38:17.172Z,8.10
2022-11-15T08:41:07.263Z,7.93
2022-11-15T08:43:54.823Z,12.17
2022-11-15T08:46:42.180Z,10.93
2022-11-15T08:49:31.526Z,11.47
2022-11-15T08:52:18.902Z,9.63
2022-11-15T08:55:07.007Z,9.50
2022-11-15T08:57:54.597Z,8.80
2022-11-15T09:00:42.426Z,9.27
2022-11-15T09:03:29.726Z,9.37
2022-11-15T09:06:18.733Z,8.60
2022-11-15T09:09:06.407Z,12.93
2022-11-15T09:11:58.043Z,10.70
2022-11-15T09:14:48.450Z,10.70
2022-11-15T09:17:35.980Z,9.50
2022-11-15T09:20:23.264Z,8.80
2022-11-15T09:23:11.985Z,10.83
2022-11-15T09:26:02.995Z,9.73
2022-11-15T09:28:50.307Z,11.53
2022-11-15T09:31:37.698Z,11.83
2022-11-15T09:34:25.135Z,11.60
2022-11-15T09:37:13.438Z,9.13
2022-11-15T09:40:02.290Z,11.20
2022-11-15T09:43:01.033Z,9.97
2022-11-15T09:45:58.210Z,11.30
2022-11-15T09:48:54.990Z,9.60
2022-11-15T09:51:50.435Z,9.50
2022-11-15T09:57:23.942Z,20.67
2022-11-15T10:00:30.994Z,20.13
2022-11-15T10:03:11.847Z,66.27
2022-11-15T10:05:43.953Z,10.37
2022-11-15T10:08:35.791Z,11.93
2022-11-15T10:14:02.034Z,10.13
2022-11-15T10:17:09.185Z,13.83
2022-11-15T10:19:45.723Z,14.20
2022-11-15T10:22:28.033Z,10.63
2022-11-15T10:25:12.571Z,11.10
2022-11-15T10:27:42.871Z,10.73
2022-11-15T10:30:18.449Z,12.43
2022-11-15T10:32:49.304Z,14.03
2022-11-15T10:35:27.082Z,13.23
2022-11-15T10:38:07.734Z,10.77
2022-11-15T10:40:37.182Z,11.63
2022-11-15T10:43:21.298Z,10.70
2022-11-15T10:45:53.972Z,10.80
2022-11-15T10:48:27.701Z,10.60
2022-11-15T10:51:00.781Z,11.27
2022-11-15T10:53:39.391Z,9.87
2022-11-15T10:56:11.302Z,12.43
2022-11-15T10:58:42.451Z,20.30
2022-11-15T11:01:15.761Z,19.60
2022-11-15T11:03:46.127Z,19.57
2022-11-15T11:06:16.560Z,19.43
2022-11-15T11:08:58.200Z,21.20
2022-11-15T11:11:44.861Z,22.60
2022-11-15T11:14:15.752Z,23.70
2022-11-15T11:16:50.963Z,24.50
2022-11-15T11:19:54.629Z,25.27
2022-11-15T11:22:32.901Z,22.53
2022-11-15T11:25:34.438Z,24.97
2022-11-15T11:28:19.038Z,23.80
2022-11-15T11:30:58.640Z,24.87
2022-11-15T11:33:34.065Z,25.83
2022-11-15T11:36:15.236Z,25.20
2022-11-15T11:38:56.355Z,25.83
2022-11-15T11:41:44.096Z,23.27
2022-11-15T11:44:27.881Z,24.20
2022-11-15T11:46:59.108Z,23.90
2022-11-15T11:49:34.617Z,23.80
2022-11-15T11:52:10.937Z,23.70
2022-11-15T11:54:48.679Z,24.53
2022-11-15T11:57:26.500Z,24.90
2022-11-15T12:00:01.054Z,23.40
2022-11-15T12:02:36.730Z,25.53
2022-11-15T12:05:15.866Z,23.63
2022-11-15T12:07:48.372Z,23.40
2022-11-15T12:10:25.827Z,23.77
2022-11-15T12:13:01.189Z,23.10
2022-11-15T12:15:35.157Z,24.13
2022-11-15T12:18:04.608Z,24.17
2022-11-15T12:20:39.010Z,25.40
2022-11-15T12:23:15.919Z,24.37
2022-11-15T12:25:51.330Z,25.80
2022-11-15T12:28:37.016Z,23.40
2022-11-15T12:31:13.588Z,24.70
2022-11-15T12:33:44.981Z,23.73
2022-11-15T12:36:36.558Z,24.03
2022-11-15T12:39:07.957Z,25.17
2022-11-15T12:41:38.394Z,27.53
2022-11-15T12:44:12.473Z,32.53
2022-11-15T12:47:26.145Z,42.80
2022-11-15T12:49:55.954Z,30.37
2022-11-15T12:52:26.409Z,23.87
2022-11-15T12:55:26.165Z,24.07
2022-11-15T12:57:57.004Z,23.07
2022-11-15T13:00:49.619Z,26.10
2022-11-15T13:03:30.623Z,23.27
2022-11-15T13:06:31.560Z,21.80
2022-11-15T13:09:00.610Z,22.37
2022-11-15T13:11:52.578Z,22.13
2022-11-15T13:14:48.926Z,22.73
2022-11-15T13:17:36.898Z,21.83
2022-11-15T13:20:24.986Z,21.63
2022-11-15T13:23:03.571Z,23.10
2022-11-15T13:26:11.438Z,21.53
2022-11-15T13:28:45.774Z,21.60
2022-11-15T13:31:30.686Z,23.17
2022-11-15T13:34:03.494Z,22.13
2022-11-15T13:36:35.482Z,24.20
2022-11-15T13:39:06.455Z,24.10
2022-11-15T13:41:37.085Z,25.80
2022-11-15T13:44:06.894Z,26.13
2022-11-15T13:46:37.271Z,25.97
2022-11-15T13:49:08.468Z,25.63
2022-11-15T13:51:42.703Z,26.73
2022-11-15T13:54:20.315Z,25.50
2022-11-15T13:56:54.302Z,24.73
2022-11-15T13:59:27.441Z,21.60
2022-11-15T14:02:00.122Z,20.67
2022-11-15T14:04:34.973Z,22.40
2022-11-15T14:07:05.217Z,22.60
2022-11-15T14:09:41.303Z,22.90
2022-11-15T14:12:32.919Z,24.10
2022-11-15T14:15:04.958Z,22.17
2022-11-15T14:17:45.847Z,22.33
2022-11-15T14:20:31.929Z,22.80
2022-11-15T14:23:03.410Z,20.87
2022-11-15T14:25:33.107Z,23.10
2022-11-15T14:28:14.654Z,21.97
2022-11-15T14:30:44.656Z,22.10
2022-11-15T14:33:24.619Z,22.67
2022-11-15T14:35:53.889Z,21.73
2022-11-15T14:38:22.783Z,22.77
2022-11-15T14:40:51.918Z,22.40
2022-11-15T14:43:20.713Z,22.77
2022-11-15T14:45:49.735Z,23.20
2022-11-15T14:48:18.609Z,22.80
2022-11-15T14:50:49.041Z,22.57
2022-11-15T14:53:19.980Z,22.67
2022-11-15T14:55:49.186Z,22.50
2022-11-15T14:58:17.906Z,24.00
2022-11-15T15:00:47.465Z,24.37
2022-11-15T15:03:16.362Z,22.33
2022-11-15T15:05:47.351Z,23.33
2022-11-15T15:08:16.315Z,23.07
2022-11-15T15:10:46.830Z,22.70
2022-11-15T15:13:19.364Z,24.23
2022-11-15T15:16:06.188Z,24.50
2022-11-15T15:18:52.152Z,25.00
2022-11-15T15:21:25.981Z,35.37
2022-11-15T15:23:56.378Z,37.07
2022-11-15T15:26:26.194Z,33.40
2022-11-15T15:28:55.254Z,32.07
2022-11-15T15:31:41.379Z,27.53
2022-11-15T15:34:16.421Z,26.90
2022-11-15T15:36:47.343Z,28.27
2022-11-15T15:39:33.666Z,28.43
2022-11-15T15:42:02.655Z,27.43
2022-11-15T15:44:48.742Z,26.73
2022-11-15T15:47:20.510Z,26.70
2022-11-15T15:49:49.670Z,26.70
2022-11-15T15:52:20.471Z,26.17
2022-11-15T15:54:49.484Z,25.27
2022-11-15T15:57:18.330Z,24.83
2022-11-15T15:59:47.163Z,24.83
2022-11-15T16:02:16.725Z,24.53
2022-11-15T16:04:45.754Z,25.53
2022-11-15T16:07:24.735Z,29.00
2022-11-15T16:10:02.959Z,28.70
2022-11-15T16:12:50.070Z,29.47
2022-11-15T16:15:19.202Z,29.60
2022-11-15T16:17:52.158Z,33.47
2022-11-15T16:20:37.256Z,32.93
2022-11-15T16:23:10.068Z,30.90
2022-11-15T16:25:43.682Z,30.77
2022-11-15T16:28:21.910Z,38.43
2022-11-15T16:30:56.579Z,29.83
2022-11-15T16:33:26.286Z,28.50
2022-11-15T16:35:55.336Z,28.70
2022-11-15T16:38:25.986Z,30.07
2022-11-15T16:40:54.972Z,33.67
2022-11-15T16:43:23.986Z,40.40
2022-11-15T16:45:53.227Z,42.97
2022-11-15T16:48:25.483Z,40.67
2022-11-15T16:50:58.118Z,36.53
2022-11-15T16:53:29.272Z,30.53
2022-11-15T16:55:58.861Z,29.47
2022-11-15T16:58:27.737Z,30.80
2022-11-15T17:00:57.941Z,34.37
2022-11-15T17:03:27.570Z,37.27
2022-11-15T17:06:00.849Z,32.70
2022-11-15T17:08:33.745Z,30.73
2022-11-15T17:11:06.746Z,30.87
2022-11-15T17:13:35.768Z,32.17
2022-11-15T17:16:09.289Z,33.33
2022-11-15T17:18:39.230Z,34.47
2022-11-15T17:21:10.255Z,35.63
2022-11-15T17:23:40.839Z,36.37
2022-11-15T17:26:28.896Z,38.50
2022-11-15T17:29:16.463Z,40.53
2022-11-15T17:31:45.552Z,45.40
2022-11-15T17:34:14.537Z,45.43
2022-11-15T17:36:43.474Z,45.40
2022-11-15T17:39:13.795Z,46.90
2022-11-15T17:41:42.755Z,43.67
2022-11-15T17:44:11.704Z,42.80
2022-11-15T17:46:41.025Z,40.17
2022-11-15T17:49:10.220Z,41.97
2022-11-15T17:51:39.086Z,42.50
2022-11-15T17:54:08.205Z,42.57
2022-11-15T17:56:40.956Z,42.63
2022-11-15T17:59:14.766Z,42.37
2022-11-15T18:01:44.976Z,43.90
2022-11-15T18:04:15.213Z,43.77
2022-11-15T18:06:44.551Z,43.60
2022-11-15T18:09:13.408Z,46.43
2022-11-15T18:12:01.716Z,44.20
2022-11-15T18:14:32.942Z,45.30
2022-11-15T18:17:01.827Z,47.10
2022-11-15T18:19:47.909Z,45.30
2022-11-15T18:22:16.887Z,46.57
2022-11-15T18:24:47.227Z,45.90
2022-11-15T18:27:17.707Z,47.10
2022-11-15T18:29:46.658Z,48.70
2022-11-15T18:32:17.957Z,51.53
2022-11-15T18:34:46.845Z,52.50
2022-11-15T18:37:15.820Z,48.27
2022-11-15T18:39:46.536Z,47.40
2022-11-15T18:42:19.794Z,47.97
2022-11-15T18:44:49.112Z,47.37
2022-11-15T18:47:18.745Z,46.67
2022-11-15T18:49:47.852Z,46.90
2022-11-15T18:52:16.781Z,48.37
2022-11-15T18:54:46.871Z,48.90
2022-11-15T18:57:15.773Z,50.27
2022-11-15T18:59:46.192Z,51.77
2022-11-15T19:02:15.274Z,49.53
2022-11-15T19:04:44.211Z,55.27
2022-11-15T19:07:13.529Z,51.13
2022-11-15T19:09:42.584Z,52.87
2022-11-15T19:12:11.552Z,51.93
2022-11-15T19:14:40.501Z,51.53
2022-11-15T19:17:10.930Z,50.83
2022-11-15T19:19:39.891Z,49.17
2022-11-15T19:22:08.891Z,49.67
2022-11-15T19:24:37.861Z,50.37
2022-11-15T19:27:08.841Z,47.00
2022-11-15T19:29:37.891Z,47.50
2022-11-15T19:32:07.107Z,47.73
2022-11-15T19:34:37.491Z,47.07
2022-11-15T19:37:06.503Z,44.03
2022-11-15T19:39:39.842Z,41.93
2022-11-15T19:42:10.142Z,41.10
2022-11-15T19:44:56.240Z,39.20
2022-11-15T19:47:27.113Z,41.27
2022-11-15T19:49:57.501Z,42.43
2022-11-15T19:52:26.510Z,45.60
2022-11-15T19:54:55.485Z,43.40
2022-11-15T19:57:25.785Z,47.43
2022-11-15T19:59:54.833Z,70.43
2022-11-15T20:02:23.837Z,57.30
2022-11-15T20:04:52.787Z,47.73
2022-11-15T20:07:23.315Z,40.40
2022-11-15T20:09:52.722Z,37.13
2022-11-15T20:12:21.682Z,36.37
2022-11-15T20:15:07.723Z,37.57
2022-11-15T20:17:36.756Z,38.00
2022-11-15T20:20:06.286Z,36.63
2022-11-15T20:22:36.702Z,38.83
2022-11-15T20:25:06.931Z,37.00
2022-11-15T20:27:35.902Z,35.87
2022-11-15T20:30:05.486Z,37.43
2022-11-15T20:32:34.533Z,38.03
2022-11-15T20:35:21.162Z,38.20
2022-11-15T20:37:51.661Z,38.27
2022-11-15T20:40:20.672Z,36.63
2022-11-15T20:42:53.781Z,36.03
2022-11-15T20:45:23.321Z,35.63
2022-11-15T20:47:52.643Z,36.23
2022-11-15T20:50:41.642Z,35.70
2022-11-15T20:53:13.364Z,35.20
2022-11-15T20:55:43.008Z,34.33
2022-11-15T20:58:12.702Z,34.93
2022-11-15T21:00:42.453Z,34.60
2022-11-15T21:03:13.644Z,33.47
2022-11-15T21:05:44.161Z,32.80
2022-11-15T21:08:15.061Z,34.93
2022-11-15T21:11:00.950Z,32.90
2022-11-15T21:13:30.461Z,33.37
2022-11-15T21:15:59.642Z,34.33
2022-11-15T21:18:28.633Z,33.80
2022-11-15T21:20:57.922Z,33.93
2022-11-15T21:23:28.324Z,31.87
2022-11-15T21:25:57.586Z,33.13
2022-11-15T21:28:26.629Z,32.50
2022-11-15T21:30:57.550Z,32.20
2022-11-15T21:33:28.750Z,32.63
2022-11-15T21:35:58.671Z,33.10
2022-11-15T21:38:30.535Z,32.50
2022-11-15T21:41:05.112Z,32.33
2022-11-15T21:43:34.632Z,31.97
2022-11-15T21:46:05.584Z,32.97
2022-11-15T21:48:36.694Z,32.27
2022-11-15T21:51:25.063Z,32.83
2022-11-15T21:53:57.744Z,32.67
2022-11-15T21:56:28.175Z,33.10
2022-11-15T21:58:58.124Z,32.97
2022-11-15T22:01:59.923Z,33.90
2022-11-15T22:04:28.940Z,35.77
2022-11-15T22:06:57.825Z,35.77
2022-11-15T22:09:28.378Z,38.30
2022-11-15T22:11:57.395Z,35.47
2022-11-15T22:14:26.378Z,33.80
2022-11-15T22:16:55.352Z,34.10
2022-11-15T22:19:24.303Z,32.87
2022-11-15T22:21:53.344Z,32.93
2022-11-15T22:24:23.723Z,31.70
2022-11-15T22:26:54.862Z,31.47
2022-11-15T22:29:23.871Z,31.63
2022-11-15T22:31:52.838Z,31.03
2022-11-15T22:34:21.733Z,31.17
2022-11-15T22:37:18.197Z,31.93
2022-11-15T22:39:41.936Z,31.57
2022-11-15T22:42:12.356Z,31.10
2022-11-15T22:44:41.327Z,31.47
2022-11-15T22:47:10.211Z,31.77
2022-11-15T22:49:39.180Z,31.30
2022-11-15T22:52:09.357Z,31.30
2022-11-15T22:54:39.206Z,29.90
2022-11-15T22:57:28.347Z,30.20
2022-11-15T22:59:57.859Z,29.80
2022-11-15T23:02:28.677Z,27.83
2022-11-15T23:04:58.109Z,29.20
2022-11-15T23:07:27.736Z,29.67
2022-11-15T23:10:17.345Z,29.80
2022-11-15T23:13:05.031Z,28.37
2022-11-15T23:15:48.311Z,29.43
2022-11-15T23:18:17.777Z,28.73
2022-11-15T23:20:47.249Z,28.90
2022-11-15T23:23:15.739Z,28.17
2022-11-15T23:25:45.148Z,30.17
2022-11-15T23:28:16.097Z,29.20
2022-11-15T23:31:02.772Z,29.53
2022-11-15T23:33:49.149Z,30.47
2022-11-15T23:36:21.289Z,31.47
2022-11-15T23:38:50.755Z,30.93
2022-11-15T23:41:20.043Z,31.83
2022-11-15T23:44:08.896Z,29.90
2022-11-15T23:46:38.335Z,32.47
2022-11-15T23:49:07.856Z,31.80
2022-11-15T23:51:37.346Z,33.13
2022-11-15T23:54:06.897Z,30.93
2022-11-15T23:56:36.414Z,31.60
2022-11-15T23:59:08.054Z,32.27
